Time;durP1;ratioP1;P1;durP2;ratioP2;P2;SDS_P1;SDS_P2;PMS_P1;PMS_P2;Temp;Humidity;BMP_temperature;BMP_pressure;BME280_temperature;BME280_humidity;BME280_pressure;Samples;Min_cycle;Max_cycle;Signal;HPM_P1;HPM_P2
2023/04/26 00:01:16;;;;;;;;;;;;;;;-140.72;100.00;53011.81;5090532;28;19920;-69
2023/04/26 00:03:41;;;;;;;;;;;;;;;-140.72;100.00;53028.06;5084982;28;19923;-69
2023/04/26 00:06:07;;;;;;;;;;;;;;;-140.72;100.00;52979.34;5089119;28;19980;-69
2023/04/26 00:08:33;;;;;;;;;;;;;;;-140.72;100.00;53019.94;5090453;28;20372;-69
2023/04/26 00:10:58;;;;;;;;;;;;;;;-140.72;100.00;53044.28;5086085;28;20057;-69
2023/04/26 00:13:23;;;;;;;;;;;;;;;-140.72;100.00;52995.59;5087904;28;19920;-69
2023/04/26 00:15:48;;;;;;;;;;;;;;;-140.72;100.00;52995.59;5088375;28;19920;-69
2023/04/26 00:18:13;;;;;;;;;;;;;;;-140.72;100.00;53009.78;5089960;28;19960;-69
2023/04/26 00:20:39;;;;;;;;;;;;;;;-140.72;100.00;53005.72;5089891;28;20013;-69
2023/04/26 00:23:04;;;;;;;;;;;;;;;-140.72;100.00;52981.38;5088748;28;20687;-69
2023/04/26 00:25:29;;;;;;;;;;;;;;;-140.72;100.00;53036.16;5090105;28;19973;-69
2023/04/26 00:27:54;;;;;;;;;;;;;;;-140.72;100.00;53060.53;5089290;28;20288;-69
2023/04/26 00:30:20;;;;;;;;;;;;;;;-140.72;100.00;53036.16;5085999;28;19932;-69
2023/04/26 00:32:45;;;;;;;;;;;;;;;-140.72;100.00;53032.13;5089445;28;19926;-69
2023/04/26 00:35:11;;;;;;;;;;;;;;;-140.72;100.00;52993.56;5087577;28;19924;-70
2023/04/26 00:37:36;;;;;;;;;;;;;;;-140.72;100.00;53015.88;5082248;28;19932;-69
2023/04/26 00:40:01;;;;;;;;;;;;;;;-140.72;100.00;53024.00;5092463;28;20158;-69
2023/04/26 00:42:28;;;;;;;;;;;;;;;-140.72;100.00;53036.16;5089945;28;19999;-69
2023/04/26 00:44:56;;;;;;;;;;;;;;;-140.72;100.00;53028.06;5092533;28;20465;-69
2023/04/26 00:47:21;;;;;;;;;;;;;;;-140.72;100.00;53001.66;5082141;28;20425;-69
2023/04/26 00:49:46;;;;;;;;;;;;;;;-140.72;100.00;53038.19;5087427;28;19924;-69
2023/04/26 00:52:12;;;;;;;;;;;;;;;-140.72;100.00;53015.88;5088491;28;20394;-69
2023/04/26 00:54:38;;;;;;;;;;;;;;;-140.72;100.00;53017.91;5089775;28;19920;-69
2023/04/26 00:57:05;;;;;;;;;;;;;;;-140.72;100.00;53048.34;5090040;28;20358;-69
2023/04/26 00:59:32;;;;;;;;;;;;;;;-140.72;100.00;53024.00;5088083;28;19935;-69
2023/04/26 01:01:57;;;;;;;;;;;;;;;-140.72;100.00;53007.75;5087911;28;19927;-70
2023/04/26 01:04:26;;;;;;;;;;;;;;;-140.72;100.00;53058.50;5084020;28;19920;-69
2023/04/26 01:06:51;;;;;;;;;;;;;;;-140.72;100.00;53030.09;5089644;28;20350;-69
2023/04/26 01:09:17;;;;;;;;;;;;;;;-140.72;100.00;53048.34;5089415;28;19968;-69
2023/04/26 01:11:42;;;;;;;;;;;;;;;-140.72;100.00;53044.28;5089498;28;20309;-69
2023/04/26 01:14:08;;;;;;;;;;;;;;;-140.72;100.00;53060.53;5086096;28;20286;-69
2023/04/26 01:16:34;;;;;;;;;;;;;;;-140.72;100.00;53042.25;5088417;28;19981;-69
2023/04/26 01:19:11;;;;;;;;;;;;;;;-140.72;100.00;53050.38;5085470;28;20007;-69
2023/04/26 01:21:37;;;;;;;;;;;;;;;-140.72;100.00;53021.97;5085022;28;19934;-69
2023/04/26 01:24:03;;;;;;;;;;;;;;;-140.72;100.00;53040.22;5087588;28;19928;-69
2023/04/26 01:26:29;;;;;;;;;;;;;;;-140.72;100.00;53048.34;5089614;28;19920;-69
2023/04/26 01:28:54;;;;;;;;;;;;;;;-140.72;100.00;53050.38;5085010;28;19935;-69
2023/04/26 01:31:20;;;;;;;;;;;;;;;-140.72;100.00;53050.38;5088929;28;20009;-69
2023/04/26 01:33:45;;;;;;;;;;;;;;;-140.72;100.00;53024.00;5087214;28;19920;-69
2023/04/26 01:36:10;;;;;;;;;;;;;;;-140.72;100.00;52995.59;5090215;28;19928;-69
2023/04/26 01:38:36;;;;;;;;;;;;;;;-140.72;100.00;53024.00;5088449;28;19982;-69
2023/04/26 01:41:01;;;;;;;;;;;;;;;-140.72;100.00;53056.47;5084069;28;19920;-69
2023/04/26 01:43:26;;;;;;;;;;;;;;;-140.72;100.00;53074.72;5082627;28;19920;-69
2023/04/26 01:45:51;;;;;;;;;;;;;;;-140.72;100.00;53036.16;5087972;28;19939;-69
2023/04/26 01:48:17;;;;;;;;;;;;;;;-140.72;100.00;53048.34;5084542;28;19928;-69
2023/04/26 01:50:42;;;;;;;;;;;;;;;-140.72;100.00;53017.91;5087171;28;19924;-69
2023/04/26 01:53:07;;;;;;;;;;;;;;;-140.72;100.00;53056.47;5084733;28;19920;-69
2023/04/26 01:55:32;;;;;;;;;;;;;;;-140.72;100.00;53032.13;5088590;28;19928;-69
2023/04/26 01:57:58;;;;;;;;;;;;;;;-140.72;100.00;53024.00;5087157;28;19928;-69
2023/04/26 02:00:23;;;;;;;;;;;;;;;-140.72;100.00;53038.19;5081913;28;19920;-69
2023/04/26 02:02:48;;;;;;;;;;;;;;;-140.72;100.00;53024.00;5088375;28;20027;-69
2023/04/26 02:05:13;;;;;;;;;;;;;;;-140.72;100.00;53028.06;5089474;28;19928;-70
2023/04/26 02:07:39;;;;;;;;;;;;;;;-140.72;100.00;53048.34;5090433;28;20294;-69
2023/04/26 02:10:04;;;;;;;;;;;;;;;-140.72;100.00;53038.19;5090084;28;19936;-69
2023/04/26 02:12:30;;;;;;;;;;;;;;;-140.72;100.00;53044.28;5090163;28;19924;-69
2023/04/26 02:14:56;;;;;;;;;;;;;;;-140.72;100.00;53048.34;5092083;28;20401;-69
2023/04/26 02:17:21;;;;;;;;;;;;;;;-140.72;100.00;53044.28;5088259;28;20359;-69
2023/04/26 02:19:46;;;;;;;;;;;;;;;-140.72;100.00;53019.94;5091670;28;19959;-69
2023/04/26 02:22:12;;;;;;;;;;;;;;;-140.72;100.00;53036.16;5091118;28;19950;-69
2023/04/26 02:24:37;;;;;;;;;;;;;;;-140.72;100.00;53064.59;5091624;28;19928;-69
2023/04/26 02:27:04;;;;;;;;;;;;;;;-140.72;100.00;53026.03;5091708;28;19920;-69
2023/04/26 02:29:29;;;;;;;;;;;;;;;-140.72;100.00;53046.31;5090441;28;19920;-69
2023/04/26 02:31:54;;;;;;;;;;;;;;;-140.72;100.00;53056.47;5087454;28;20286;-69
2023/04/26 02:34:20;;;;;;;;;;;;;;;-140.72;100.00;53019.94;5092204;28;19927;-69
2023/04/26 02:36:45;;;;;;;;;;;;;;;-140.72;100.00;53013.84;5088661;28;19931;-69
2023/04/26 02:39:11;;;;;;;;;;;;;;;-140.72;100.00;53048.34;5086931;28;19924;-69
2023/04/26 02:41:36;;;;;;;;;;;;;;;-140.72;100.00;53007.75;5091450;28;20289;-69
2023/04/26 02:44:01;;;;;;;;;;;;;;;-140.72;100.00;53015.88;5089131;28;20065;-69
2023/04/26 02:46:26;;;;;;;;;;;;;;;-140.72;100.00;52987.47;5089559;28;19956;-69
2023/04/26 02:48:51;;;;;;;;;;;;;;;-140.72;100.00;53056.47;5090473;28;19975;-69
2023/04/26 02:51:17;;;;;;;;;;;;;;;-140.72;100.00;53015.88;5089185;28;19920;-69
2023/04/26 02:53:42;;;;;;;;;;;;;;;-140.72;100.00;53028.06;5091662;28;19920;-69
2023/04/26 02:56:07;;;;;;;;;;;;;;;-140.72;100.00;53021.97;5089764;28;20389;-69
2023/04/26 02:58:32;;;;;;;;;;;;;;;-140.72;100.00;53015.88;5089007;28;20015;-69
2023/04/26 03:00:58;;;;;;;;;;;;;;;-140.72;100.00;53019.94;5089224;28;20188;-69
2023/04/26 03:03:23;;;;;;;;;;;;;;;-140.72;100.00;53019.94;5087523;28;19949;-69
2023/04/26 03:05:49;;;;;;;;;;;;;;;-140.72;100.00;53032.13;5091768;28;19920;-69
2023/04/26 03:08:14;;;;;;;;;;;;;;;-140.72;100.00;53056.47;5087915;28;19939;-69
2023/04/26 03:10:39;;;;;;;;;;;;;;;-140.72;100.00;53009.78;5090040;28;19920;-69
2023/04/26 03:13:04;;;;;;;;;;;;;;;-140.72;100.00;53056.47;5089975;28;19920;-69
2023/04/26 03:15:30;;;;;;;;;;;;;;;-140.72;100.00;52999.66;5085395;28;19928;-69
2023/04/26 03:17:56;;;;;;;;;;;;;;;-140.72;100.00;53030.09;5086338;28;20385;-69
2023/04/26 03:20:22;;;;;;;;;;;;;;;-140.72;100.00;52997.63;5088654;28;20329;-69
2023/04/26 03:22:47;;;;;;;;;;;;;;;-140.72;100.00;53040.22;5085176;28;19920;-69
2023/04/26 03:25:14;;;;;;;;;;;;;;;-140.72;100.00;53009.78;5090726;28;19958;-69
2023/04/26 03:27:39;;;;;;;;;;;;;;;-140.72;100.00;53088.94;5089346;28;20471;-69
2023/04/26 03:30:05;;;;;;;;;;;;;;;-140.72;100.00;53044.28;5090578;28;19952;-69
2023/04/26 03:32:30;;;;;;;;;;;;;;;-140.72;100.00;53028.06;5088362;28;19924;-69
2023/04/26 03:34:56;;;;;;;;;;;;;;;-140.72;100.00;53052.41;5089873;28;20257;-69
2023/04/26 03:37:22;;;;;;;;;;;;;;;-140.72;100.00;53052.41;5090530;28;19920;-69
2023/04/26 03:39:47;;;;;;;;;;;;;;;-140.72;100.00;53040.22;5089535;28;20550;-69
2023/04/26 03:42:12;;;;;;;;;;;;;;;-140.72;100.00;53074.72;5089870;28;19924;-69
2023/04/26 03:44:37;;;;;;;;;;;;;;;-140.72;100.00;53036.16;5088036;28;20457;-69
2023/04/26 03:47:04;;;;;;;;;;;;;;;-140.72;100.00;53038.19;5090964;28;19921;-69
2023/04/26 03:49:29;;;;;;;;;;;;;;;-140.72;100.00;53040.22;5087511;28;19968;-69
2023/04/26 03:51:54;;;;;;;;;;;;;;;-140.72;100.00;53054.44;5089778;28;19971;-69
2023/04/26 03:54:20;;;;;;;;;;;;;;;-140.72;100.00;53040.22;5089180;28;19926;-69
2023/04/26 03:56:45;;;;;;;;;;;;;;;-140.72;100.00;53042.25;5089532;28;20281;-69
2023/04/26 03:59:11;;;;;;;;;;;;;;;-140.72;100.00;53050.38;5089959;28;20299;-69
2023/04/26 04:01:36;;;;;;;;;;;;;;;-140.72;100.00;53070.69;5089048;28;19920;-69
2023/04/26 04:04:01;;;;;;;;;;;;;;;-140.72;100.00;53050.38;5090876;28;20007;-69
2023/04/26 04:06:27;;;;;;;;;;;;;;;-140.72;100.00;53024.00;5089751;28;19936;-69
2023/04/26 04:08:52;;;;;;;;;;;;;;;-140.72;100.00;53052.41;5089724;28;19936;-69
2023/04/26 04:11:17;;;;;;;;;;;;;;;-140.72;100.00;53078.78;5090893;28;19924;-69
2023/04/26 04:13:42;;;;;;;;;;;;;;;-140.72;100.00;53034.16;5087200;28;19920;-69
2023/04/26 04:16:09;;;;;;;;;;;;;;;-140.72;100.00;53072.69;5086621;28;19924;-69
2023/04/26 04:18:34;;;;;;;;;;;;;;;-140.72;100.00;53028.06;5089316;28;19967;-69
2023/04/26 04:20:59;;;;;;;;;;;;;;;-140.72;100.00;53021.97;5089931;28;19993;-69
2023/04/26 04:23:26;;;;;;;;;;;;;;;-140.72;100.00;53072.69;5085997;28;19920;-69
2023/04/26 04:25:51;;;;;;;;;;;;;;;-140.72;100.00;53052.41;5089074;28;19920;-69
2023/04/26 04:28:16;;;;;;;;;;;;;;;-140.72;100.00;53036.16;5089319;28;19943;-69
2023/04/26 04:30:43;;;;;;;;;;;;;;;-140.72;100.00;53060.53;5088330;28;20015;-69
2023/04/26 04:33:08;;;;;;;;;;;;;;;-140.72;100.00;53074.72;5084816;28;19927;-69
2023/04/26 04:35:33;;;;;;;;;;;;;;;-140.72;100.00;53060.53;5088885;28;19924;-69
2023/04/26 04:37:59;;;;;;;;;;;;;;;-140.72;100.00;53030.09;5085569;28;19993;-69
2023/04/26 04:40:25;;;;;;;;;;;;;;;-140.72;100.00;53054.44;5088371;28;19920;-69
2023/04/26 04:42:50;;;;;;;;;;;;;;;-140.72;100.00;53044.28;5088116;28;19981;-69
2023/04/26 04:45:16;;;;;;;;;;;;;;;-140.72;100.00;53056.47;5088103;28;19931;-72
2023/04/26 04:47:42;;;;;;;;;;;;;;;-140.72;100.00;53030.09;5087898;28;19920;-70
2023/04/26 04:50:07;;;;;;;;;;;;;;;-140.72;100.00;53040.22;5090116;28;19966;-70
2023/04/26 04:52:32;;;;;;;;;;;;;;;-140.72;100.00;53044.28;5088542;28;19928;-70
2023/04/26 04:54:58;;;;;;;;;;;;;;;-140.72;100.00;53044.28;5085690;28;19920;-69
2023/04/26 04:57:23;;;;;;;;;;;;;;;-140.72;100.00;52999.66;5086864;28;19935;-69
2023/04/26 04:59:48;;;;;;;;;;;;;;;-140.72;100.00;53040.22;5087097;28;19920;-70
2023/04/26 05:02:13;;;;;;;;;;;;;;;-140.72;100.00;52995.59;5087382;28;19926;-69
2023/04/26 05:04:38;;;;;;;;;;;;;;;-140.72;100.00;53044.28;5086598;28;19951;-69
2023/04/26 05:07:05;;;;;;;;;;;;;;;-140.72;100.00;52993.56;5088247;28;20015;-70
2023/04/26 05:09:30;;;;;;;;;;;;;;;-140.72;100.00;52973.25;5087678;28;20406;-71
2023/04/26 05:11:56;;;;;;;;;;;;;;;-140.72;100.00;53046.31;5084707;28;19923;-72
2023/04/26 05:14:21;;;;;;;;;;;;;;;-140.72;100.00;53021.97;5086779;28;19924;-69
2023/04/26 05:16:46;;;;;;;;;;;;;;;-140.72;100.00;53013.84;5086983;28;19923;-69
2023/04/26 05:19:12;;;;;;;;;;;;;;;-140.72;100.00;53005.72;5086958;28;19924;-70
2023/04/26 05:21:37;;;;;;;;;;;;;;;-140.72;100.00;53015.88;5085847;28;19920;-69
2023/04/26 05:24:03;;;;;;;;;;;;;;;-140.72;100.00;53040.22;5084440;28;20040;-69
2023/04/26 05:26:28;;;;;;;;;;;;;;;-140.72;100.00;52999.66;5087692;28;19920;-69
2023/04/26 05:28:53;;;;;;;;;;;;;;;-140.72;100.00;53009.78;5089990;28;20015;-69
2023/04/26 05:31:18;;;;;;;;;;;;;;;-140.72;100.00;53015.88;5090647;28;19920;-69
2023/04/26 05:33:44;;;;;;;;;;;;;;;-140.72;100.00;53007.75;5079963;28;19916;-71
2023/04/26 05:36:09;;;;;;;;;;;;;;;-140.72;100.00;52975.28;5090555;28;19924;-70
2023/04/26 05:38:35;;;;;;;;;;;;;;;-140.72;100.00;52983.41;5090966;28;19916;-70
2023/04/26 05:41:01;;;;;;;;;;;;;;;-140.72;100.00;52983.41;5091925;28;19963;-71
2023/04/26 05:43:26;;;;;;;;;;;;;;;-140.72;100.00;52971.22;5089256;28;20347;-69
2023/04/26 05:45:52;;;;;;;;;;;;;;;-140.72;100.00;52993.56;5083617;28;20325;-74
2023/04/26 05:48:17;;;;;;;;;;;;;;;-140.72;100.00;52987.47;5093489;28;19916;-71
2023/04/26 05:50:42;;;;;;;;;;;;;;;-140.72;100.00;52938.75;5092054;28;20603;-69
2023/04/26 05:53:07;;;;;;;;;;;;;;;-140.72;100.00;52977.31;5092153;28;20450;-70
2023/04/26 05:55:33;;;;;;;;;;;;;;;-140.72;100.00;52975.28;5092090;28;20372;-71
2023/04/26 05:57:58;;;;;;;;;;;;;;;-140.72;100.00;52938.75;5091385;28;19916;-72
2023/04/26 06:00:24;;;;;;;;;;;;;;;-140.72;100.00;52991.53;5089064;28;19920;-70
2023/04/26 06:02:50;;;;;;;;;;;;;;;-140.72;100.00;52955.00;5088130;28;19926;-69
2023/04/26 06:05:15;;;;;;;;;;;;;;;-140.72;100.00;52975.28;5089001;28;20023;-70
2023/04/26 06:07:41;;;;;;;;;;;;;;;-140.72;100.00;52938.75;5090673;28;19990;-70
2023/04/26 06:10:06;;;;;;;;;;;;;;;-140.72;100.00;52942.81;5090850;28;19920;-70
2023/04/26 06:12:31;;;;;;;;;;;;;;;-140.72;100.00;52934.69;5090134;28;19919;-70
2023/04/26 06:14:57;;;;;;;;;;;;;;;-140.72;100.00;52944.84;5088847;28;19988;-70
2023/04/26 06:17:22;;;;;;;;;;;;;;;-140.72;100.00;52934.69;5087353;28;19927;-70
2023/04/26 06:19:47;;;;;;;;;;;;;;;-140.72;100.00;52920.50;5090090;28;19921;-70
2023/04/26 06:22:12;;;;;;;;;;;;;;;-140.72;100.00;52926.59;5088321;28;19924;-70
2023/04/26 06:24:37;;;;;;;;;;;;;;;-140.72;100.00;52944.84;5087092;28;20049;-70
2023/04/26 06:27:03;;;;;;;;;;;;;;;-140.72;100.00;52910.34;5089820;28;19973;-72
2023/04/26 06:29:31;;;;;;;;;;;;;;;-140.72;100.00;52908.31;5088861;28;19977;-70
2023/04/26 06:31:56;;;;;;;;;;;;;;;-140.72;81.77;52910.34;5090855;28;19923;-69
2023/04/26 06:34:21;;;;;;;;;;;;;;;-140.72;64.24;52888.03;5086797;28;19935;-71
2023/04/26 06:36:47;;;;;;;;;;;;;;;-140.72;25.84;52898.16;5084107;28;19920;-74
2023/04/26 06:39:12;;;;;;;;;;;;;;;-140.72;0.00;52920.50;5083411;28;20018;-71
2023/04/26 06:41:37;;;;;;;;;;;;;;;-140.72;0.00;52914.41;5083839;28;19965;-74
2023/04/26 06:44:03;;;;;;;;;;;;;;;-140.72;0.00;52924.56;5089741;28;19920;-71
2023/04/26 06:46:37;;;;;;;;;;;;;;;-140.72;0.00;52900.19;5090221;28;19981;-71
2023/04/26 06:49:02;;;;;;;;;;;;;;;-140.72;0.00;52920.50;5091266;28;19927;-72
2023/04/26 06:51:28;;;;;;;;;;;;;;;-140.72;0.00;52898.16;5091320;28;19924;-72
2023/04/26 06:53:53;;;;;;;;;;;;;;;-140.72;0.00;52886.00;5091382;28;20365;-71
2023/04/26 06:56:19;;;;;;;;;;;;;;;-140.72;0.00;52881.94;5105644;28;19973;-72
2023/04/26 06:58:59;;;;;;;;;;;;;;;-140.72;0.00;52886.00;5095353;28;19916;-72
2023/04/26 07:01:25;;;;;;;;;;;;;;;-140.72;0.00;52863.66;5091128;28;19920;-72
2023/04/26 07:03:50;;;;;;;;;;;;;;;-140.72;0.00;52875.84;5100148;28;20453;-72
2023/04/26 07:06:15;;;;;;;;;;;;;;;-140.72;0.00;52914.41;5098060;28;19920;-72
2023/04/26 07:08:40;;;;;;;;;;;;;;;-140.72;0.00;52890.06;5093206;28;19920;-72
2023/04/26 07:11:09;;;;;;;;;;;;;;;-140.72;0.00;52886.00;5094645;28;19923;-72
2023/04/26 07:13:34;;;;;;;;;;;;;;;-140.72;0.00;52902.22;5094753;28;19920;-73
2023/04/26 07:16:00;;;;;;;;;;;;;;;-140.72;0.00;52900.19;5089322;28;20377;-73
2023/04/26 07:18:25;;;;;;;;;;;;;;;-140.72;0.00;52865.69;5092071;28;19974;-73
2023/04/26 07:20:50;;;;;;;;;;;;;;;-140.72;0.00;52865.69;5092943;28;19921;-73
2023/04/26 07:23:15;;;;;;;;;;;;;;;-140.72;0.00;52869.75;5084686;28;19959;-71
2023/04/26 07:25:40;;;;;;;;;;;;;;;-140.72;0.00;52847.44;5088891;28;20391;-72
2023/04/26 07:28:07;;;;;;;;;;;;;;;-140.72;0.00;52892.09;5085566;28;20371;-72
2023/04/26 07:30:32;;;;;;;;;;;;;;;-140.72;0.00;52867.72;5089003;28;19920;-72
2023/04/26 07:32:57;;;;;;;;;;;;;;;-140.72;0.00;52833.22;5089249;28;20301;-72
2023/04/26 07:35:22;;;;;;;;;;;;;;;-140.72;0.00;52827.16;5090103;28;20311;-73
2023/04/26 07:37:47;;;;;;;;;;;;;;;-140.72;0.00;52867.72;5083241;28;20030;-72
2023/04/26 07:40:13;;;;;;;;;;;;;;;-140.72;0.00;52837.28;5087073;28;19928;-72
2023/04/26 07:42:39;;;;;;;;;;;;;;;-140.72;0.00;52857.59;5085881;28;19923;-72
2023/04/26 07:45:04;;;;;;;;;;;;;;;-140.72;0.00;52861.66;5090516;28;19920;-72
2023/04/26 07:47:30;;;;;;;;;;;;;;;-140.72;0.00;52837.28;5092831;28;19920;-72
2023/04/26 07:49:55;;;;;;;;;;;;;;;-140.72;0.00;52833.22;5087738;28;19920;-72
2023/04/26 07:52:20;;;;;;;;;;;;;;;-140.72;0.00;52847.44;5087804;28;19939;-72
2023/04/26 07:54:45;;;;;;;;;;;;;;;-140.72;0.00;52851.50;5086311;28;19927;-72
2023/04/26 07:57:11;;;;;;;;;;;;;;;-140.72;0.00;52861.66;5088589;28;19973;-72
2023/04/26 07:59:36;;;;;;;;;;;;;;;-140.72;0.00;52886.00;5081383;28;19920;-72
2023/04/26 08:02:01;;;;;;;;;;;;;;;-140.72;0.00;52890.06;5086932;28;19929;-75
2023/04/26 08:04:32;;;;;;;;;;;;;;;-140.72;0.00;52847.44;5082038;28;19926;-74
2023/04/26 08:06:57;;;;;;;;;;;;;;;-140.72;0.00;52849.47;5085043;28;20366;-73
2023/04/26 08:09:22;;;;;;;;;;;;;;;-140.72;0.00;52871.78;5082831;28;19924;-73
2023/04/26 08:11:47;;;;;;;;;;;;;;;-140.72;0.00;52869.75;5082735;28;19943;-72
2023/04/26 08:14:13;;;;;;;;;;;;;;;-140.72;0.00;52819.03;5083290;28;19920;-70
2023/04/26 08:16:38;;;;;;;;;;;;;;;-140.72;0.00;52817.00;5088612;28;19924;-70
2023/04/26 08:19:03;;;;;;;;;;;;;;;-140.72;0.00;52835.25;5088554;28;19927;-70
2023/04/26 08:21:28;;;;;;;;;;;;;;;-140.72;0.00;52821.06;5084800;28;19979;-70
2023/04/26 08:23:54;;;;;;;;;;;;;;;-140.72;0.00;52829.19;5086619;28;19960;-68
2023/04/26 08:26:19;;;;;;;;;;;;;;;-140.72;0.00;52768.28;5086206;28;19951;-70
2023/04/26 08:28:45;;;;;;;;;;;;;;;-140.72;0.00;52821.06;5088681;28;20340;-68
2023/04/26 08:31:10;;;;;;;;;;;;;;;-140.72;0.00;52778.44;5084666;28;19965;-68
2023/04/26 08:33:35;;;;;;;;;;;;;;;-140.72;0.00;52766.25;5087090;28;19920;-69
2023/04/26 08:36:01;;;;;;;;;;;;;;;-140.72;0.00;52792.66;5087899;28;19920;-69
2023/04/26 08:38:26;;;;;;;;;;;;;;;-140.72;0.00;52770.31;5087316;28;19928;-71
2023/04/26 08:40:54;;;;;;;;;;;;;;;-140.72;0.00;52800.75;5085577;28;19973;-69
2023/04/26 08:43:20;;;;;;;;;;;;;;;-140.72;0.00;52802.78;5088668;28;19927;-70
2023/04/26 08:45:46;;;;;;;;;;;;;;;-140.72;0.00;52814.97;5090530;28;19920;-69
2023/04/26 08:48:16;;;;;;;;;;;;;;;-140.72;0.00;52754.09;5085183;28;19920;-70
2023/04/26 08:50:43;;;;;;;;;;;;;;;-140.72;0.00;52731.75;5082545;28;19935;-69
2023/04/26 08:53:09;;;;;;;;;;;;;;;-140.72;0.00;52745.97;5089068;28;19927;-70
2023/04/26 08:55:35;;;;;;;;;;;;;;;-140.72;0.00;52770.31;5083467;28;19920;-72
2023/04/26 08:58:01;;;;;;;;;;;;;;;-140.72;0.00;52784.53;5085062;28;20348;-70
2023/04/26 09:00:27;;;;;;;;;;;;;;;-140.72;0.00;52796.72;5086341;28;19973;-71
2023/04/26 09:02:52;;;;;;;;;;;;;;;-140.72;0.00;52792.66;5085969;28;19931;-71
2023/04/26 09:05:22;;;;;;;;;;;;;;;-140.72;0.00;52843.38;5083268;28;19931;-73
2023/04/26 09:07:48;;;;;;;;;;;;;;;-140.72;0.00;52808.88;5088050;28;20571;-72
2023/04/26 09:10:18;;;;;;;;;;;;;;;-140.72;0.00;52817.00;5095590;28;19989;-72
2023/04/26 09:12:43;;;;;;;;;;;;;;;-140.72;0.00;52849.47;5084226;28;19954;-72
2023/04/26 09:15:10;;;;;;;;;;;;;;;-140.72;0.00;52837.28;5086974;28;20456;-72
2023/04/26 09:17:40;;;;;;;;;;;;;;;-140.72;0.00;52857.59;5083736;28;20304;-73
2023/04/26 09:20:17;;;;;;;;;;;;;;;-140.72;0.00;52802.78;5081787;28;19920;-72
2023/04/26 09:22:42;;;;;;;;;;;;;;;-140.72;0.00;52869.75;5078921;28;19934;-73
2023/04/26 09:25:08;;;;;;;;;;;;;;;-140.72;0.00;52812.94;5088423;28;19928;-73
2023/04/26 09:27:35;;;;;;;;;;;;;;;-140.72;0.00;52812.94;5082098;28;20279;-72
2023/04/26 09:30:15;;;;;;;;;;;;;;;-140.72;0.00;52810.91;5083559;28;20358;-72
2023/04/26 09:32:44;;;;;;;;;;;;;;;-140.72;0.00;52800.75;5085351;28;19927;-73
2023/04/26 09:35:28;;;;;;;;;;;;;;;-140.72;0.00;52778.44;5083879;28;19924;-72
2023/04/26 09:38:03;;;;;;;;;;;;;;;-140.72;0.00;52786.56;5085302;28;20020;-72
2023/04/26 09:40:29;;;;;;;;;;;;;;;-140.72;0.00;52827.16;5084608;28;20035;-72
2023/04/26 09:42:55;;;;;;;;;;;;;;;-140.72;0.00;52798.72;5087866;28;19920;-72
2023/04/26 09:45:20;;;;;;;;;;;;;;;-140.72;0.00;52786.56;5086110;28;19981;-72
2023/04/26 09:47:46;;;;;;;;;;;;;;;-140.72;0.00;52780.47;5087944;28;19920;-72
2023/04/26 09:50:11;;;;;;;;;;;;;;;-140.72;0.00;52827.16;5085400;28;19939;-72
2023/04/26 09:52:45;;;;;;;;;;;;;;;-140.72;0.00;52841.34;5085005;28;19934;-72
2023/04/26 09:55:24;;;;;;;;;;;;;;;-140.72;0.00;52806.84;5081539;28;19928;-71
2023/04/26 09:57:49;;;;;;;;;;;;;;;-140.72;0.00;52774.38;5081643;28;19937;-70
2023/04/26 10:00:15;;;;;;;;;;;;;;;-140.72;0.00;52790.63;5080677;28;19928;-68
2023/04/26 10:02:40;;;;;;;;;;;;;;;-140.72;0.00;52825.13;5081263;28;19972;-69
2023/04/26 10:05:06;;;;;;;;;;;;;;;-140.72;0.00;52806.84;5079900;28;20382;-69
2023/04/26 10:07:33;;;;;;;;;;;;;;;-140.72;0.00;52814.97;5080457;28;20151;-69
2023/04/26 10:09:58;;;;;;;;;;;;;;;-140.72;0.00;52782.50;5079455;28;19959;-70
2023/04/26 10:12:23;;;;;;;;;;;;;;;-140.72;0.00;52796.72;5084149;28;20047;-68
2023/04/26 10:14:48;;;;;;;;;;;;;;;-140.72;0.00;52869.75;5089891;28;20274;-69
2023/04/26 10:17:14;;;;;;;;;;;;;;;-140.72;0.00;52843.38;5084387;28;19998;-69
2023/04/26 10:19:45;;;;;;;;;;;;;;;-140.72;0.00;52784.53;5086917;28;19921;-68
2023/04/26 10:22:20;;;;;;;;;;;;;;;-140.72;0.00;52812.94;5085509;28;19928;-71
2023/04/26 10:24:46;;;;;;;;;;;;;;;-140.72;0.00;52764.25;5086397;28;20009;-68
2023/04/26 10:27:12;;;;;;;;;;;;;;;-140.72;0.00;52786.56;5086720;28;19935;-69
2023/04/26 10:29:52;;;;;;;;;;;;;;;-140.72;0.00;52770.31;5087584;28;19920;-69
2023/04/26 10:32:18;;;;;;;;;;;;;;;-140.72;0.00;52788.59;5087616;28;19924;-70
2023/04/26 10:34:44;;;;;;;;;;;;;;;-140.72;0.00;52760.19;5088636;28;19935;-69
2023/04/26 10:37:11;;;;;;;;;;;;;;;-140.72;0.00;52729.75;5087462;28;20325;-69
2023/04/26 10:39:37;;;;;;;;;;;;;;;-140.72;0.00;52772.34;5086626;28;19928;-72
2023/04/26 10:42:38;;;;;;;;;;;;;;;-140.72;0.00;52733.78;5087551;28;20124;-69
2023/04/26 10:45:26;;;;;;;;;;;;;;;-140.72;0.00;52689.16;5024403;28;19974;-69
2023/04/26 10:48:10;;;;;;;;;;;;;;;-140.72;0.00;52648.56;5070837;28;19928;-69
2023/04/26 10:50:56;;;;;;;;;;;;;;;-140.72;0.00;52626.25;5105470;28;19943;-69
2023/04/26 10:53:21;;;;;;;;;;;;;;;-140.72;0.00;52626.25;5087711;28;19921;-69
2023/04/26 10:55:46;;;;;;;;;;;;;;;-140.72;0.00;52571.47;5086402;28;19920;-69
2023/04/26 10:58:27;;;;;;;;;;;;;;;-140.72;0.00;52547.09;5088831;28;20393;-69
2023/04/26 11:01:11;;;;;;;;;;;;;;;-140.72;0.00;52411.16;5088205;28;20018;-69
2023/04/26 11:03:37;;;;;;;;;;;;;;;-140.72;0.00;52388.84;5089473;28;20374;-69
2023/04/26 11:06:06;;;;;;;;;;;;;;;-140.72;0.00;52411.16;5084361;28;19935;-69
2023/04/26 11:08:33;;;;;;;;;;;;;;;-140.72;0.00;52415.22;5094291;28;20015;-69
2023/04/26 11:11:01;;;;;;;;;;;;;;;-140.72;0.00;52421.28;5087875;28;19923;-69
2023/04/26 11:13:26;;;;;;;;;;;;;;;-140.72;0.00;52480.16;5083570;28;20337;-69
2023/04/26 11:15:52;;;;;;;;;;;;;;;-140.72;0.00;52504.50;5086107;28;19928;-69
2023/04/26 11:18:19;;;;;;;;;;;;;;;-140.72;0.00;52541.03;5087488;28;20422;-69
2023/04/26 11:20:45;;;;;;;;;;;;;;;-140.72;0.00;52401.00;5081745;28;20006;-69
2023/04/26 11:23:10;;;;;;;;;;;;;;;-140.72;0.00;52411.16;5086583;28;20007;-69
2023/04/26 11:25:37;;;;;;;;;;;;;;;-140.72;0.00;52396.94;5086793;28;19924;-70
2023/04/26 11:28:03;;;;;;;;;;;;;;;-140.72;0.00;52461.88;5086885;28;19930;-70
2023/04/26 11:30:31;;;;;;;;;;;;;;;-140.72;0.00;52575.50;5086073;28;19924;-69
2023/04/26 11:33:00;;;;;;;;;;;;;;;-140.72;0.00;52605.94;5088676;28;19991;-69
2023/04/26 11:35:26;;;;;;;;;;;;;;;-140.72;0.00;52630.31;5089475;28;19927;-69
2023/04/26 11:37:51;;;;;;;;;;;;;;;-140.72;0.00;52650.59;5087138;28;19990;-69
2023/04/26 11:40:17;;;;;;;;;;;;;;;-140.72;0.00;52705.38;5079629;28;19924;-69
2023/04/26 11:42:43;;;;;;;;;;;;;;;-140.72;0.00;52727.72;5090997;28;19924;-68
2023/04/26 11:45:08;;;;;;;;;;;;;;;-140.72;0.00;52733.78;5088851;28;19920;-69
2023/04/26 11:47:34;;;;;;;;;;;;;;;-140.72;0.00;52774.38;5090859;28;20011;-69
2023/04/26 11:50:00;;;;;;;;;;;;;;;-140.72;0.00;52750.03;5093549;28;20005;-69
2023/04/26 11:52:25;;;;;;;;;;;;;;;-140.72;0.00;52703.34;5094023;28;19920;-69
2023/04/26 11:54:59;;;;;;;;;;;;;;;-140.72;0.00;52762.22;5091321;28;20527;-69
2023/04/26 11:57:29;;;;;;;;;;;;;;;-140.72;0.00;52707.41;5090353;28;19920;-69
2023/04/26 12:00:05;;;;;;;;;;;;;;;-140.72;0.00;52748.00;5088780;28;20391;-71
2023/04/26 12:02:30;;;;;;;;;;;;;;;-140.72;0.00;52719.59;5086089;28;19953;-71
2023/04/26 12:04:58;;;;;;;;;;;;;;;-140.72;0.00;52705.38;5085064;28;20392;-71
2023/04/26 12:07:24;;;;;;;;;;;;;;;-140.72;0.00;52666.84;5085231;28;19935;-71
2023/04/26 12:09:49;;;;;;;;;;;;;;;-140.72;0.00;52658.72;5086451;28;19920;-71
2023/04/26 12:12:15;;;;;;;;;;;;;;;-140.72;0.00;52642.47;5086437;28;19959;-71
2023/04/26 12:14:40;;;;;;;;;;;;;;;-140.72;0.00;52518.69;5086464;28;19974;-71
2023/04/26 12:17:06;;;;;;;;;;;;;;;-140.72;0.00;52486.22;5083388;28;19924;-71
2023/04/26 12:19:38;;;;;;;;;;;;;;;-140.72;0.00;52396.94;5085930;28;19920;-71
2023/04/26 12:22:06;;;;;;;;;;;;;;;-140.72;0.00;52374.63;5087707;28;20008;-71